createdAt,value
2022-12-08T00:18:46.693Z,94923.31
2022-12-08T00:32:42.956Z,94922.91
2022-12-08T00:46:35.657Z,94912.09
2022-12-08T00:49:03.685Z,94912.03
2022-12-08T00:52:20.325Z,94913.00
2022-12-08T00:55:29.957Z,94909.88
2022-12-08T00:57:57.628Z,94906.19
2022-12-08T01:04:08.102Z,94913.91
2022-12-08T01:06:42.209Z,94913.00
2022-12-08T01:09:28.083Z,94912.94
2022-12-08T01:11:57.805Z,94910.69
2022-12-08T01:14:27.606Z,94906.72
2022-12-08T01:19:53.558Z,94914.75
2022-12-08T01:22:21.218Z,94913.59
2022-12-08T01:24:48.878Z,94907.44
2022-12-08T01:27:16.913Z,94910.94
2022-12-08T01:29:44.597Z,94905.59
2022-12-08T01:32:12.238Z,94906.81
2022-12-08T01:34:40.045Z,94901.16
2022-12-08T01:37:09.119Z,94905.44
2022-12-08T01:39:36.772Z,94907.91
2022-12-08T01:42:04.620Z,94902.94
2022-12-08T01:44:55.744Z,94899.94
2022-12-08T01:47:28.327Z,94899.22
2022-12-08T01:49:56.088Z,94885.03
2022-12-08T01:52:30.063Z,94889.16
2022-12-08T01:55:02.054Z,94893.19
2022-12-08T01:57:34.274Z,94894.00
2022-12-08T02:00:05.436Z,94889.44
2022-12-08T02:02:50.952Z,94883.53
2022-12-08T02:05:21.400Z,94886.41
2022-12-08T02:07:51.216Z,94887.25
2022-12-08T02:10:20.947Z,94875.25
2022-12-08T02:12:50.092Z,94866.16
2022-12-08T02:15:18.017Z,94872.25
2022-12-08T02:17:58.777Z,94864.75
2022-12-08T02:20:42.738Z,94864.75
2022-12-08T02:23:24.970Z,94856.00
2022-12-08T02:26:35.248Z,94849.72
2022-12-08T02:29:40.267Z,94852.53
2022-12-08T02:32:24.436Z,94853.56
2022-12-08T02:35:01.095Z,94850.19
2022-12-08T02:37:33.686Z,94847.19
2022-12-08T02:40:08.355Z,94842.34
2022-12-08T02:42:41.504Z,94851.38
2022-12-08T02:45:15.697Z,94843.75
2022-12-08T02:47:44.374Z,94845.31
2022-12-08T02:50:13.807Z,94847.78
2022-12-08T02:52:47.013Z,94845.75
2022-12-08T02:55:23.445Z,94835.44
2022-12-08T02:58:18.580Z,94845.13
2022-12-08T03:01:01.596Z,94837.09
2022-12-08T03:03:36.601Z,94830.88
2022-12-08T03:06:16.753Z,94830.47
2022-12-08T03:08:52.526Z,94831.41
2022-12-08T03:11:24.038Z,94822.56
2022-12-08T03:13:56.556Z,94823.69
2022-12-08T03:16:26.864Z,94829.97
2022-12-08T03:19:00.180Z,94824.75
2022-12-08T03:21:33.112Z,94830.94
2022-12-08T03:24:06.142Z,94818.16
2022-12-08T03:26:42.255Z,94817.22
2022-12-08T03:29:10.037Z,94815.16
2022-12-08T03:31:42.710Z,94817.44
2022-12-08T03:34:12.121Z,94809.59
2022-12-08T03:36:41.121Z,94809.72
2022-12-08T03:39:08.712Z,94808.06
2022-12-08T03:41:36.324Z,94810.72
2022-12-08T03:44:03.928Z,94816.28
2022-12-08T03:46:32.143Z,94812.41
2022-12-08T03:48:59.732Z,94810.44
2022-12-08T03:51:28.057Z,94803.47
2022-12-08T03:53:57.518Z,94804.25
2022-12-08T03:56:26.711Z,94811.88
2022-12-08T03:58:55.307Z,94800.28
2022-12-08T04:01:23.847Z,94806.19
2022-12-08T04:03:51.687Z,94800.06
2022-12-08T04:06:20.159Z,94800.69
2022-12-08T04:08:47.832Z,94802.91
2022-12-08T04:11:17.285Z,94792.84
2022-12-08T04:13:45.430Z,94791.78
2022-12-08T04:16:17.506Z,94797.06
2022-12-08T04:18:45.238Z,94796.13
2022-12-08T04:21:12.872Z,94798.66
2022-12-08T04:23:40.676Z,94795.59
2022-12-08T04:26:08.583Z,94801.06
2022-12-08T04:28:37.569Z,94797.47
2022-12-08T04:31:05.826Z,94794.88
2022-12-08T04:33:35.105Z,94792.22
2022-12-08T04:36:03.056Z,94795.50
2022-12-08T04:38:30.733Z,94782.34
2022-12-08T04:40:58.433Z,94784.56
2022-12-08T04:43:26.090Z,94784.69
2022-12-08T04:45:55.081Z,94781.50
2022-12-08T04:48:22.668Z,94777.19
2022-12-08T04:50:50.279Z,94780.97
2022-12-08T04:53:19.687Z,94777.09
2022-12-08T04:55:48.626Z,94781.81
2022-12-08T04:58:18.399Z,94777.88
2022-12-08T05:00:47.394Z,94778.00
2022-12-08T05:03:16.902Z,94783.34
2022-12-08T05:05:44.662Z,94780.34
2022-12-08T05:08:12.507Z,94777.59
2022-12-08T05:10:40.409Z,94779.75
2022-12-08T05:13:08.198Z,94783.13
2022-12-08T05:15:35.863Z,94774.50
2022-12-08T05:18:03.474Z,94783.06
2022-12-08T05:20:32.438Z,94776.47
2022-12-08T05:23:00.058Z,94774.63
2022-12-08T05:25:27.735Z,94770.69
2022-12-08T05:28:17.496Z,94767.81
2022-12-08T05:30:43.064Z,94772.66
2022-12-08T05:33:10.700Z,94767.25
2022-12-08T05:35:39.792Z,94763.03
2022-12-08T05:38:08.025Z,94759.44
2022-12-08T05:40:35.653Z,94763.53
2022-12-08T05:43:03.244Z,94752.84
2022-12-08T05:45:30.971Z,94754.47
2022-12-08T05:47:58.603Z,94752.63
2022-12-08T05:50:26.190Z,94756.31
2022-12-08T05:52:55.221Z,94753.97
2022-12-08T05:55:22.934Z,94756.00
2022-12-08T05:57:50.574Z,94761.66
2022-12-08T06:00:19.137Z,94757.16
2022-12-08T06:02:46.831Z,94749.56
2022-12-08T06:05:14.570Z,94749.44
2022-12-08T06:07:42.266Z,94745.72
2022-12-08T06:10:12.277Z,94752.91
2022-12-08T06:12:40.327Z,94752.81
2022-12-08T06:15:08.871Z,94759.09
2022-12-08T06:17:36.506Z,94753.44
2022-12-08T06:20:04.948Z,94749.72
2022-12-08T06:22:32.812Z,94746.81
2022-12-08T06:25:00.473Z,94748.66
2022-12-08T06:27:29.517Z,94755.50
2022-12-08T06:29:57.576Z,94756.84
2022-12-08T06:32:27.618Z,94753.94
2022-12-08T06:34:58.530Z,94760.34
2022-12-08T06:37:26.104Z,94754.69
2022-12-08T06:39:54.515Z,94750.94
2022-12-08T06:42:39.617Z,94752.28
2022-12-08T06:45:10.114Z,94748.09
2022-12-08T06:47:37.728Z,94737.69
2022-12-08T06:50:07.194Z,94750.16
2022-12-08T06:52:40.840Z,94749.22
2022-12-08T06:55:29.184Z,94746.16
2022-12-08T06:58:01.214Z,94759.41
2022-12-08T07:00:30.432Z,94763.94
2022-12-08T07:02:58.103Z,94753.94
2022-12-08T07:05:25.734Z,94760.13
2022-12-08T07:07:53.374Z,94754.25
2022-12-08T07:10:21.048Z,94756.34
2022-12-08T07:12:48.638Z,94754.38
2022-12-08T07:15:17.089Z,94759.63
2022-12-08T07:17:46.101Z,94758.91
2022-12-08T07:20:13.953Z,94760.00
2022-12-08T07:22:41.633Z,94766.09
2022-12-08T07:25:09.932Z,94758.56
2022-12-08T07:27:37.516Z,94764.00
2022-12-08T07:30:06.313Z,94757.22
2022-12-08T07:32:34.258Z,94756.22
2022-12-08T07:35:03.206Z,94765.56
2022-12-08T07:37:30.805Z,94757.84
2022-12-08T07:39:58.444Z,94767.28
2022-12-08T07:42:26.238Z,94770.56
2022-12-08T07:44:53.841Z,94764.63
2022-12-08T07:47:21.616Z,94765.44
2022-12-08T07:49:49.212Z,94761.13
2022-12-08T07:52:18.178Z,94762.78
2022-12-08T07:54:45.825Z,94759.19
2022-12-08T07:57:13.441Z,94755.81
2022-12-08T07:59:41.032Z,94760.13
2022-12-08T08:02:25.958Z,94762.91
2022-12-08T08:04:54.492Z,94767.75
2022-12-08T08:07:23.523Z,94762.63
2022-12-08T08:09:51.100Z,94768.16
2022-12-08T08:12:33.928Z,94755.78
2022-12-08T08:15:02.214Z,94757.44
2022-12-08T08:17:30.548Z,94753.50
2022-12-08T08:19:58.459Z,94760.41
2022-12-08T08:22:27.763Z,94760.84
2022-12-08T08:24:55.902Z,94763.03
2022-12-08T08:27:24.867Z,94762.22
2022-12-08T08:29:52.712Z,94753.44
2022-12-08T08:32:20.355Z,94759.44
2022-12-08T08:34:47.940Z,94755.50
2022-12-08T08:37:15.660Z,94760.03
2022-12-08T08:39:44.616Z,94757.34
2022-12-08T08:42:12.260Z,94753.25
2022-12-08T08:44:39.957Z,94753.25
2022-12-08T08:47:07.740Z,94750.69
2022-12-08T08:49:35.826Z,94756.66
2022-12-08T08:52:05.075Z,94754.88
2022-12-08T08:54:33.096Z,94763.53
2022-12-08T08:57:02.608Z,94761.69
2022-12-08T08:59:30.391Z,94754.88
2022-12-08T09:01:58.073Z,94762.59
2022-12-08T09:04:26.338Z,94758.19
2022-12-08T09:06:54.038Z,94760.03
2022-12-08T09:09:21.637Z,94751.53
2022-12-08T09:11:49.234Z,94754.81
2022-12-08T09:14:18.195Z,94758.47
2022-12-08T09:16:45.818Z,94750.56
2022-12-08T09:19:13.562Z,94763.44
2022-12-08T09:21:41.746Z,94755.72
2022-12-08T09:24:15.385Z,94758.19
2022-12-08T09:26:44.034Z,94750.47
2022-12-08T09:29:13.642Z,94745.44
2022-12-08T09:31:42.887Z,94750.28
2022-12-08T09:34:11.937Z,94745.31
2022-12-08T09:36:39.950Z,94733.28
2022-12-08T09:39:07.845Z,94734.13
2022-12-08T09:41:43.272Z,94740.19
2022-12-08T09:44:39.554Z,94735.75
2022-12-08T09:47:17.174Z,94727.00
2022-12-08T09:49:52.744Z,94728.97
2022-12-08T09:52:24.912Z,94723.94
2022-12-08T09:54:52.710Z,94720.53
2022-12-08T09:57:23.501Z,94714.66
2022-12-08T09:59:56.573Z,94706.94
2022-12-08T10:02:27.450Z,94706.94
2022-12-08T10:04:57.536Z,94700.97
2022-12-08T10:07:33.021Z,94700.06
2022-12-08T10:10:07.005Z,94688.03
2022-12-08T10:12:44.263Z,94693.47
2022-12-08T10:15:40.270Z,94691.72
2022-12-08T10:18:15.918Z,94686.47
2022-12-08T10:20:50.196Z,94688.13
2022-12-08T10:23:26.023Z,94684.91
2022-12-08T10:25:58.723Z,94677.00
2022-12-08T10:28:26.596Z,94681.44
2022-12-08T10:30:54.222Z,94680.91
2022-12-08T10:33:24.378Z,94671.47
2022-12-08T10:35:53.751Z,94666.31
2022-12-08T10:38:28.352Z,94667.03
2022-12-08T10:41:04.288Z,94666.19
2022-12-08T10:43:32.992Z,94657.66
2022-12-08T10:46:11.197Z,94650.97
2022-12-08T10:48:49.029Z,94650.06
2022-12-08T10:51:24.779Z,94649.13
2022-12-08T10:53:52.469Z,94652.50
2022-12-08T10:56:20.079Z,94649.13
2022-12-08T10:58:48.952Z,94652.50
2022-12-08T11:01:21.136Z,94646.28
2022-12-08T11:03:51.856Z,94642.41
2022-12-08T11:06:21.591Z,94642.63
2022-12-08T11:08:54.972Z,94636.03
2022-12-08T11:11:37.763Z,94630.91
2022-12-08T11:14:08.155Z,94634.50
2022-12-08T11:16:36.551Z,94625.03
2022-12-08T11:19:07.429Z,94617.59
2022-12-08T11:21:38.411Z,94621.25
2022-12-08T11:24:23.066Z,94629.66
2022-12-08T11:26:54.479Z,94615.25
2022-12-08T11:29:22.578Z,94613.53
2022-12-08T11:31:54.707Z,94615.03
2022-12-08T11:34:32.780Z,94620.09
2022-12-08T11:37:00.817Z,94606.84
2022-12-08T11:39:33.208Z,94602.94
2022-12-08T11:42:04.271Z,94604.28
2022-12-08T11:44:37.685Z,94597.69
2022-12-08T11:47:13.480Z,94591.63
2022-12-08T11:49:43.729Z,94594.41
2022-12-08T11:52:22.233Z,94594.63
2022-12-08T11:54:54.238Z,94594.63
2022-12-08T11:57:25.231Z,94597.00
2022-12-08T11:59:55.431Z,94591.94
2022-12-08T12:02:26.375Z,94583.19
2022-12-08T12:05:00.624Z,94582.25
2022-12-08T12:07:54.400Z,94586.25
2022-12-08T12:10:47.302Z,94578.53
2022-12-08T12:13:31.780Z,94577.13
2022-12-08T12:16:32.080Z,94578.63
2022-12-08T12:19:02.583Z,94579.31
2022-12-08T12:21:35.837Z,94575.22
2022-12-08T12:24:08.826Z,94577.09
2022-12-08T12:26:39.189Z,94572.75
2022-12-08T12:29:13.276Z,94574.50
2022-12-08T12:31:44.284Z,94564.91
2022-12-08T12:34:18.284Z,94571.81
2022-12-08T12:36:52.165Z,94566.94
2022-12-08T12:39:22.815Z,94567.09
2022-12-08T12:41:53.918Z,94558.59
2022-12-08T12:44:43.409Z,94555.69
2022-12-08T12:47:36.757Z,94554.91
2022-12-08T12:50:13.469Z,94559.38
2022-12-08T12:52:44.084Z,94555.94
2022-12-08T12:55:23.217Z,94561.19
2022-12-08T12:57:54.395Z,94559.91
2022-12-08T13:00:24.028Z,94548.66
2022-12-08T13:02:53.022Z,94551.34
2022-12-08T13:05:23.779Z,94548.78
2022-12-08T13:07:56.542Z,94542.19
2022-12-08T13:10:26.545Z,94550.03
2022-12-08T13:13:06.537Z,94547.34
2022-12-08T13:15:40.333Z,94547.34
2022-12-08T13:18:17.559Z,94537.88
2022-12-08T13:20:49.476Z,94542.81
2022-12-08T13:23:42.999Z,94536.72
2022-12-08T13:26:14.290Z,94532.41
2022-12-08T13:29:21.571Z,94521.78
2022-12-08T13:31:52.317Z,94529.50
2022-12-08T13:34:31.269Z,94525.88
2022-12-08T13:37:09.832Z,94522.16
2022-12-08T13:39:47.676Z,94525.31
2022-12-08T13:42:22.345Z,94518.50
2022-12-08T13:45:20.188Z,94515.13
2022-12-08T13:48:20.622Z,94523.84
2022-12-08T13:51:10.559Z,94524.06
2022-12-08T13:54:35.401Z,94522.09
2022-12-08T13:59:28.114Z,94526.75
2022-12-08T14:01:58.327Z,94530.00
2022-12-08T14:04:54.560Z,94530.25
2022-12-08T14:07:15.358Z,94531.50
2022-12-08T14:09:43.713Z,94529.13
2022-12-08T14:12:53.316Z,94533.81
2022-12-08T14:15:22.100Z,94530.44
2022-12-08T14:17:53.265Z,94533.81
2022-12-08T14:21:04.997Z,94545.16
2022-12-08T14:23:29.041Z,94531.59
2022-12-08T14:25:57.634Z,94535.44
2022-12-08T14:28:27.096Z,94530.44
2022-12-08T14:30:56.716Z,94533.13
2022-12-08T14:33:24.732Z,94530.75
2022-12-08T14:35:54.790Z,94530.75
2022-12-08T14:38:24.609Z,94530.97
2022-12-08T14:41:02.960Z,94518.31
2022-12-08T14:43:32.220Z,94520.06
2022-12-08T14:46:03.231Z,94525.22
2022-12-08T14:48:44.559Z,94520.06
2022-12-08T14:51:22.468Z,94523.78
2022-12-08T14:53:55.979Z,94528.00
2022-12-08T14:56:27.345Z,94529.66
2022-12-08T14:59:08.632Z,94527.06
2022-12-08T15:01:37.132Z,94523.16
2022-12-08T15:04:11.146Z,94525.81
2022-12-08T15:06:46.177Z,94530.47
2022-12-08T15:09:28.793Z,94521.94
2022-12-08T15:12:02.250Z,94515.03
2022-12-08T15:14:33.227Z,94527.19
2022-12-08T15:17:01.047Z,94526.50
2022-12-08T15:19:31.180Z,94524.13
2022-12-08T15:22:00.556Z,94521.69
2022-12-08T15:24:31.661Z,94526.91
2022-12-08T15:26:59.336Z,94531.72
2022-12-08T15:29:29.460Z,94524.25
2022-12-08T15:32:01.060Z,94526.56
2022-12-08T15:34:28.830Z,94531.72
2022-12-08T15:36:57.641Z,94530.16
2022-12-08T15:39:33.416Z,94536.03
2022-12-08T15:42:02.111Z,94540.28
2022-12-08T15:44:32.493Z,94542.47
2022-12-08T15:47:02.060Z,94539.19
2022-12-08T15:49:29.834Z,94540.22
2022-12-08T15:52:20.677Z,94537.66
2022-12-08T16:01:07.618Z,94532.34
2022-12-08T16:04:27.622Z,94534.56
2022-12-08T16:07:13.011Z,94531.31
2022-12-08T16:09:20.638Z,94531.31
2022-12-08T16:12:08.182Z,94528.03
2022-12-08T16:17:25.332Z,94524.75
2022-12-08T16:19:55.230Z,94525.56
2022-12-08T16:23:03.280Z,94526.16
2022-12-08T16:26:08.638Z,94533.41
2022-12-08T16:31:17.719Z,94526.00
2022-12-08T16:33:49.080Z,94524.56
2022-12-08T16:36:24.219Z,94526.22
2022-12-08T16:38:55.522Z,94516.75
2022-12-08T16:41:40.930Z,94502.38
2022-12-08T16:44:08.610Z,94507.50
2022-12-08T16:46:37.010Z,94510.09
2022-12-08T16:49:05.886Z,94509.97
2022-12-08T16:51:34.993Z,94508.34
2022-12-08T16:54:02.595Z,94508.94
2022-12-08T16:56:33.131Z,94507.13
2022-12-08T16:59:02.688Z,94507.94
2022-12-08T17:01:30.457Z,94513.53
2022-12-08T17:06:47.124Z,94511.88
2022-12-08T17:09:14.727Z,94511.38
2022-12-08T17:11:43.641Z,94515.09
2022-12-08T17:14:12.189Z,94514.66
2022-12-08T17:16:39.906Z,94510.59
2022-12-08T17:19:07.642Z,94502.38
2022-12-08T17:25:28.759Z,94498.69
2022-12-08T17:27:57.086Z,94500.06
2022-12-08T17:30:25.007Z,94507.91
2022-12-08T17:32:53.713Z,94500.06
2022-12-08T17:35:21.612Z,94495.75
2022-12-08T17:37:49.251Z,94493.72
2022-12-08T17:40:16.876Z,94483.03
2022-12-08T17:42:46.386Z,94489.47
2022-12-08T17:45:15.595Z,94486.50
2022-12-08T17:47:43.400Z,94481.63
2022-12-08T17:50:11.571Z,94491.03
2022-12-08T17:52:39.247Z,94493.75
2022-12-08T17:55:07.974Z,94486.66
2022-12-08T17:57:35.698Z,94499.13
2022-12-08T18:00:06.566Z,94495.94
2022-12-08T18:02:35.498Z,94489.72
2022-12-08T18:05:03.201Z,94493.06
2022-12-08T18:07:31.125Z,94495.13
2022-12-08T18:09:58.854Z,94491.75
2022-12-08T18:12:26.469Z,94493.59
2022-12-08T18:14:54.184Z,94489.59
2022-12-08T18:17:24.885Z,94500.72
2022-12-08T18:19:52.691Z,94496.53
2022-12-08T18:22:25.426Z,94488.63
2022-12-08T18:24:53.168Z,94483.81
2022-12-08T18:27:20.958Z,94490.88
2022-12-08T18:29:48.700Z,94491.69
2022-12-08T18:32:18.874Z,94486.38
2022-12-08T18:34:47.911Z,94477.13
2022-12-08T18:37:17.117Z,94471.91
2022-12-08T18:39:52.357Z,94469.75
2022-12-08T18:42:28.243Z,94472.88
2022-12-08T18:45:01.628Z,94478.22
2022-12-08T18:47:29.618Z,94481.03
2022-12-08T18:49:59.009Z,94470.00
2022-12-08T18:52:32.332Z,94464.78
2022-12-08T18:55:07.887Z,94458.94
2022-12-08T18:57:37.687Z,94459.84
2022-12-08T19:00:07.426Z,94467.19
2022-12-08T19:02:36.166Z,94467.50
2022-12-08T19:05:05.852Z,94475.31
2022-12-08T19:07:33.554Z,94484.00
2022-12-08T19:10:01.218Z,94486.69
2022-12-08T19:12:28.851Z,94481.69
2022-12-08T19:14:58.121Z,94479.31
2022-12-08T19:17:26.522Z,94483.50
2022-12-08T19:19:54.214Z,94488.13
2022-12-08T19:22:23.176Z,94478.28
2022-12-08T19:24:50.906Z,94484.56
2022-12-08T19:27:18.624Z,94483.03
2022-12-08T19:29:46.303Z,94478.31
2022-12-08T19:32:13.923Z,94481.06
2022-12-08T19:34:42.122Z,94484.78
2022-12-08T19:37:13.032Z,94491.88
2022-12-08T19:39:59.228Z,94482.84
2022-12-08T19:42:44.776Z,94481.53
2022-12-08T19:45:15.673Z,94482.69
2022-12-08T19:47:44.033Z,94470.94
2022-12-08T19:50:31.007Z,94469.53
2022-12-08T19:52:59.290Z,94466.97
2022-12-08T19:55:32.056Z,94464.50
2022-12-08T19:58:01.727Z,94478.38
2022-12-08T20:00:30.487Z,94480.09
2022-12-08T20:02:58.808Z,94486.28
2022-12-08T20:05:27.153Z,94484.53
2022-12-08T20:08:10.959Z,94477.78
2022-12-08T20:10:46.751Z,94475.41
2022-12-08T20:13:31.855Z,94477.97
2022-12-08T20:16:04.403Z,94470.28
2022-12-08T20:18:32.103Z,94460.81
2022-12-08T20:21:00.347Z,94464.94
2022-12-08T20:23:28.051Z,94465.25
2022-12-08T20:26:00.571Z,94472.13
2022-12-08T20:28:28.229Z,94467.41
2022-12-08T20:30:55.999Z,94471.00
2022-12-08T20:33:23.782Z,94478.00
2022-12-08T20:36:08.335Z,94466.38
2022-12-08T20:38:45.357Z,94480.34
2022-12-08T20:41:18.061Z,94467.09
2022-12-08T20:43:46.313Z,94467.22
2022-12-08T20:46:23.361Z,94462.59
2022-12-08T20:48:54.745Z,94469.19
2022-12-08T20:51:31.725Z,94472.88
2022-12-08T20:54:00.879Z,94467.09
2022-12-08T20:56:34.407Z,94467.41
2022-12-08T20:59:02.366Z,94465.88
2022-12-08T21:01:30.220Z,94464.13
2022-12-08T21:03:58.177Z,94459.00
2022-12-08T21:06:27.781Z,94457.56
2022-12-08T21:08:55.593Z,94458.50
2022-12-08T21:11:23.667Z,94454.28
2022-12-08T21:13:53.078Z,94448.63
2022-12-08T21:16:20.829Z,94444.63
2022-12-08T21:18:48.667Z,94438.91
2022-12-08T21:21:17.840Z,94443.09
2022-12-08T21:23:45.929Z,94441.56
2022-12-08T21:26:14.962Z,94442.28
2022-12-08T21:28:43.277Z,94449.06
2022-12-08T21:31:20.421Z,94439.91
2022-12-08T21:33:50.485Z,94436.03
2022-12-08T21:36:21.460Z,94438.69
2022-12-08T21:38:51.377Z,94439.69
2022-12-08T21:41:39.711Z,94443.09
2022-12-08T21:44:14.364Z,94441.13
2022-12-08T21:46:53.848Z,94448.00
2022-12-08T21:49:25.950Z,94445.34
2022-12-08T21:52:07.660Z,94451.75
2022-12-08T21:54:36.979Z,94465.53
2022-12-08T21:57:08.149Z,94460.13
2022-12-08T21:59:37.520Z,94451.38
2022-12-08T22:02:15.571Z,94451.22
2022-12-08T22:04:48.159Z,94451.22
2022-12-08T22:07:18.021Z,94462.69
2022-12-08T22:09:53.942Z,94457.53
2022-12-08T22:12:25.474Z,94455.50
2022-12-08T22:15:00.228Z,94450.06
2022-12-08T22:17:45.058Z,94452.94
2022-12-08T22:20:19.086Z,94449.88
2022-12-08T22:22:54.939Z,94443.81
2022-12-08T22:25:31.804Z,94448.63
2022-12-08T22:28:21.505Z,94438.47
2022-12-08T22:30:50.659Z,94431.50
2022-12-08T22:33:23.214Z,94435.00
2022-12-08T22:36:11.049Z,94435.59
2022-12-08T22:38:45.868Z,94433.75
2022-12-08T22:41:16.049Z,94434.91
2022-12-08T22:44:02.891Z,94431.59
2022-12-08T22:46:41.136Z,94433.31
2022-12-08T22:49:25.747Z,94419.91
2022-12-08T22:51:56.831Z,94419.19
2022-12-08T22:54:31.720Z,94401.41
2022-12-08T22:56:59.416Z,94401.53
2022-12-08T22:59:36.476Z,94410.25
2022-12-08T23:02:07.876Z,94430.34
2022-12-08T23:04:48.281Z,94424.31
2022-12-08T23:07:21.457Z,94430.66
2022-12-08T23:09:54.144Z,94418.16
2022-12-08T23:13:05.077Z,94406.69
2022-12-08T23:15:44.059Z,94417.25
2022-12-08T23:18:17.942Z,94415.81
2022-12-08T23:20:54.424Z,94414.47
2022-12-08T23:23:27.552Z,94413.56
2022-12-08T23:26:00.546Z,94423.72
2022-12-08T23:28:51.996Z,94414.47
2022-12-08T23:31:43.322Z,94399.91
2022-12-08T23:34:11.631Z,94384.19
2022-12-08T23:39:36.243Z,94391.38
2022-12-08T23:42:05.779Z,94393.00
2022-12-08T23:44:33.474Z,94371.66
2022-12-08T23:47:01.811Z,94362.84
2022-12-08T23:49:31.266Z,94366.13
2022-12-08T23:52:02.960Z,94364.66
2022-12-08T23:54:32.224Z,94384.56
2022-12-08T23:56:59.917Z,94381.03
2022-12-08T23:59:34.876Z,94388.56
